Time;durP1;ratioP1;P1;durP2;ratioP2;P2;SDS_P1;SDS_P2;PMS_P1;PMS_P2;Temp;Humidity;BMP_temperature;BMP_pressure;BME280_temperature;BME280_humidity;BME280_pressure;Samples;Min_cycle;Max_cycle;Signal;HPM_P1;HPM_P2
2022/09/08 00:00:09;;;;;;;59.13;52.80;;;16.00;91.00;;;;;;5001206;28;20034;-46
2022/09/08 00:02:35;;;;;;;59.15;53.03;;;16.00;91.00;;;;;;5008882;28;20232;-46
2022/09/08 00:05:03;;;;;;;57.58;51.28;;;16.00;91.10;;;;;;5010462;28;20033;-45
2022/09/08 00:07:32;;;;;;;58.28;51.97;;;16.00;91.20;;;;;;5009381;28;20026;-46
2022/09/08 00:09:59;;;;;;;54.60;48.78;;;16.00;91.20;;;;;;5013067;28;20029;-45
2022/09/08 00:12:27;;;;;;;51.22;45.88;;;16.00;91.10;;;;;;4998872;28;20037;-45
2022/09/08 00:14:55;;;;;;;52.95;47.38;;;15.90;91.10;;;;;;4993084;28;20034;-46
2022/09/08 00:17:21;;;;;;;54.28;48.50;;;15.90;91.10;;;;;;5003722;28;20101;-45
2022/09/08 00:19:47;;;;;;;52.90;47.35;;;15.90;91.10;;;;;;5027202;28;20436;-46
2022/09/08 00:22:13;;;;;;;54.03;48.30;;;15.90;91.10;;;;;;5000622;28;20038;-45
2022/09/08 00:24:39;;;;;;;55.35;49.45;;;15.90;91.10;;;;;;4992974;28;20046;-48
2022/09/08 00:27:05;;;;;;;53.78;48.03;;;15.90;91.10;;;;;;4992630;28;20110;-45
2022/09/08 00:29:30;;;;;;;51.88;46.22;;;15.90;91.20;;;;;;5026158;28;20117;-48
2022/09/08 00:31:56;;;;;;;50.50;45.22;;;15.90;91.20;;;;;;5006968;28;20022;-46
2022/09/08 00:34:24;;;;;;;51.30;45.95;;;15.90;91.20;;;;;;5002327;28;20044;-45
2022/09/08 00:36:50;;;;;;;48.58;43.03;;;15.90;91.20;;;;;;4991792;28;20031;-45
2022/09/08 00:39:16;;;;;;;51.22;45.80;;;15.80;91.10;;;;;;4999520;28;20479;-45
2022/09/08 00:41:44;;;;;;;53.20;47.55;;;15.80;91.10;;;;;;5004721;28;20137;-48
2022/09/08 00:44:49;;;;;;;52.75;47.25;;;15.80;91.10;;;;;;5014978;28;20494;-48
2022/09/08 00:47:30;;;;;;;50.28;44.97;;;15.80;91.20;;;;;;5011771;28;20049;-45
2022/09/08 00:50:01;;;;;;;51.47;46.05;;;15.80;91.20;;;;;;5011919;28;20034;-45
2022/09/08 00:52:31;;;;;;;48.92;43.60;;;15.70;91.10;;;;;;4999521;28;20410;-46
2022/09/08 00:55:00;;;;;;;46.67;41.75;;;15.70;91.20;;;;;;5016744;28;20120;-46
2022/09/08 00:57:28;;;;;;;50.65;45.45;;;15.70;91.10;;;;;;5012197;28;20161;-47
2022/09/08 00:59:54;;;;;;;48.70;43.70;;;15.70;91.10;;;;;;5011598;28;20043;-45
2022/09/08 01:02:25;;;;;;;48.30;43.17;;;15.60;91.10;;;;;;5006935;28;20152;-46
2022/09/08 01:05:06;;;;;;;47.97;42.72;;;15.70;91.10;;;;;;5000668;28;20088;-48
2022/09/08 01:13:35;;;;;;;52.90;46.30;;;15.60;91.10;;;;;;5003934;28;20045;-46
2022/09/08 01:16:02;;;;;;;50.22;44.78;;;15.60;91.10;;;;;;5020363;28;20022;-48
2022/09/08 01:18:28;;;;;;;51.33;45.92;;;15.50;91.00;;;;;;5003729;28;20051;-46
2022/09/08 01:20:54;;;;;;;49.15;44.08;;;15.60;91.10;;;;;;5001271;28;20053;-46
2022/09/08 01:23:28;;;;;;;49.70;44.53;;;15.50;91.10;;;;;;5001316;28;20057;-46
2022/09/08 01:26:12;;;;;;;48.28;43.10;;;15.50;91.00;;;;;;5016379;28;20539;-50
2022/09/08 01:28:40;;;;;;;50.63;45.30;;;15.50;91.10;;;;;;5001152;28;20130;-46
2022/09/08 01:31:07;;;;;;;52.25;46.60;;;15.50;91.10;;;;;;5008049;28;20025;-47
2022/09/08 01:33:33;;;;;;;52.53;46.65;;;15.50;91.00;;;;;;5002741;28;20357;-45
2022/09/08 01:36:05;;;;;;;51.60;46.00;;;15.50;91.10;;;;;;4997525;28;20103;-46
2022/09/08 01:38:31;;;;;;;53.92;48.25;;;15.40;91.10;;;;;;5026657;28;20025;-47
2022/09/08 01:40:56;;;;;;;51.47;45.95;;;15.50;91.20;;;;;;5010755;28;20109;-46
2022/09/08 01:43:22;;;;;;;51.38;45.58;;;15.40;91.20;;;;;;5025432;28;20038;-46
2022/09/08 01:45:48;;;;;;;47.25;42.35;;;15.40;91.20;;;;;;5011006;28;20379;-45
2022/09/08 01:48:17;;;;;;;46.33;41.42;;;15.40;91.20;;;;;;5010252;28;20030;-51
2022/09/08 01:50:42;;;;;;;44.40;39.90;;;15.40;91.20;;;;;;5002522;28;20021;-46
2022/09/08 01:53:08;;;;;;;40.47;36.30;;;15.40;91.20;;;;;;5002480;28;20340;-49
2022/09/08 01:55:34;;;;;;;38.33;34.13;;;15.40;91.20;;;;;;4999890;28;20041;-48
2022/09/08 01:57:59;;;;;;;39.00;34.85;;;15.40;91.20;;;;;;5001320;28;20592;-47
2022/09/08 02:00:27;;;;;;;37.92;33.88;;;15.40;91.30;;;;;;4996505;28;20038;-46
2022/09/08 02:02:53;;;;;;;33.67;30.17;;;15.40;91.40;;;;;;5021065;28;20461;-48
2022/09/08 02:05:18;;;;;;;34.58;30.45;;;15.40;91.50;;;;;;5010437;28;20045;-46
2022/09/08 02:07:44;;;;;;;35.22;31.52;;;15.40;91.40;;;;;;5009933;28;20038;-46
2022/09/08 02:10:13;;;;;;;34.28;30.83;;;15.40;91.40;;;;;;5012996;28;20041;-48
2022/09/08 02:12:38;;;;;;;34.93;31.53;;;15.40;91.40;;;;;;5006364;28;20023;-48
2022/09/08 02:15:06;;;;;;;34.97;31.48;;;15.40;91.40;;;;;;4991022;28;20032;-46
2022/09/08 02:17:32;;;;;;;36.97;33.28;;;15.40;91.40;;;;;;5000184;28;20026;-48
2022/09/08 02:19:58;;;;;;;39.97;35.63;;;15.40;91.50;;;;;;5010575;28;20120;-49
2022/09/08 02:22:24;;;;;;;47.92;42.83;;;15.40;91.50;;;;;;5000406;28;20129;-49
2022/09/08 02:24:50;;;;;;;44.88;40.10;;;15.40;91.60;;;;;;4990775;28;20022;-46
2022/09/08 02:27:16;;;;;;;46.60;41.80;;;15.40;91.70;;;;;;4998519;28;20042;-47
2022/09/08 02:29:41;;;;;;;50.92;45.35;;;15.40;91.70;;;;;;5025313;28;20124;-49
2022/09/08 02:32:07;;;;;;;57.05;50.83;;;15.50;91.80;;;;;;5024629;28;20346;-47
2022/09/08 02:34:33;;;;;;;74.78;65.53;;;15.60;92.00;;;;;;5010278;28;20025;-47
2022/09/08 02:36:58;;;;;;;81.88;72.68;;;15.70;92.20;;;;;;5009612;28;20163;-46
2022/09/08 02:39:24;;;;;;;96.85;80.45;;;15.90;92.80;;;;;;5010172;28;20049;-48
2022/09/08 02:41:49;;;;;;;94.13;81.78;;;16.10;93.00;;;;;;5004134;28;20034;-50
2022/09/08 02:44:15;;;;;;;87.43;77.95;;;16.40;93.20;;;;;;4998514;28;20056;-51
2022/09/08 02:46:41;;;;;;;82.20;73.30;;;16.50;93.20;;;;;;5023807;28;20022;-49
2022/09/08 02:49:10;;;;;;;80.90;72.30;;;16.50;93.10;;;;;;5009049;28;20030;-49
2022/09/08 02:51:36;;;;;;;76.85;68.47;;;16.60;93.10;;;;;;5022057;28;20066;-47
2022/09/08 02:54:02;;;;;;;75.53;67.53;;;16.60;93.10;;;;;;4989744;28;20022;-51
2022/09/08 02:56:27;;;;;;;75.28;67.28;;;16.60;93.00;;;;;;4997219;28;20359;-48
2022/09/08 02:58:54;;;;;;;75.00;67.28;;;16.60;93.10;;;;;;5024684;28;20034;-51
2022/09/08 03:01:20;;;;;;;72.60;64.97;;;16.60;93.10;;;;;;5001024;28;20141;-51
2022/09/08 03:03:47;;;;;;;75.50;67.68;;;16.60;93.10;;;;;;5008913;28;20109;-47
2022/09/08 03:06:13;;;;;;;77.00;69.28;;;16.70;93.20;;;;;;5009560;28;20038;-51
2022/09/08 03:08:39;;;;;;;68.78;61.88;;;16.70;93.20;;;;;;5009039;28;20026;-48
2022/09/08 03:11:08;;;;;;;74.03;66.45;;;16.70;93.20;;;;;;5009829;28;20454;-50
2022/09/08 03:13:35;;;;;;;71.43;64.13;;;16.80;93.30;;;;;;5006416;28;20022;-47
2022/09/08 03:16:02;;;;;;;69.72;62.78;;;16.80;93.20;;;;;;5009648;28;20026;-49
2022/09/08 03:18:28;;;;;;;70.03;63.10;;;16.80;93.20;;;;;;5008225;28;20096;-52
2022/09/08 03:21:11;;;;;;;73.13;65.72;;;16.80;93.20;;;;;;5008824;28;20034;-48
2022/09/08 03:23:38;;;;;;;67.50;60.95;;;16.70;93.20;;;;;;5008925;28;20040;-52
2022/09/08 03:26:31;;;;;;;66.38;59.78;;;16.70;93.30;;;;;;5024930;28;20112;-52
2022/09/08 03:28:56;;;;;;;61.45;55.42;;;16.80;93.20;;;;;;5008633;28;20065;-47
2022/09/08 03:31:22;;;;;;;63.80;57.50;;;16.70;93.20;;;;;;5024438;28;20119;-53
2022/09/08 03:33:48;;;;;;;67.00;60.22;;;16.70;93.20;;;;;;5009219;28;20025;-50
2022/09/08 03:36:15;;;;;;;63.88;57.80;;;16.70;93.20;;;;;;4993131;28;20113;-53
2022/09/08 03:38:41;;;;;;;62.78;56.15;;;16.60;93.20;;;;;;4990027;28;20033;-49
2022/09/08 03:41:09;;;;;;;57.78;52.35;;;16.60;93.20;;;;;;4992538;28;20023;-51
2022/09/08 03:43:37;;;;;;;54.13;48.85;;;16.60;93.20;;;;;;4993478;28;20077;-50
2022/09/08 03:46:09;;;;;;;61.65;55.70;;;16.60;93.20;;;;;;4993768;28;20030;-52
2022/09/08 03:48:37;;;;;;;61.55;55.42;;;16.60;93.20;;;;;;5009218;28;20042;-50
2022/09/08 03:51:24;;;;;;;61.38;55.42;;;16.50;93.20;;;;;;5028445;28;20034;-52
2022/09/08 03:53:50;;;;;;;62.63;55.85;;;16.60;93.20;;;;;;4993194;28;20019;-51
2022/09/08 03:56:19;;;;;;;60.55;54.50;;;16.60;93.20;;;;;;4993111;28;20022;-49
2022/09/08 03:58:45;;;;;;;64.30;57.78;;;16.50;93.20;;;;;;5008171;28;20037;-48
2022/09/08 04:01:14;;;;;;;59.72;53.92;;;16.50;93.20;;;;;;5011818;28;20042;-52
2022/09/08 04:03:39;;;;;;;60.53;54.67;;;16.50;93.20;;;;;;5010098;28;20510;-51
2022/09/08 04:06:06;;;;;;;53.35;48.13;;;16.50;93.20;;;;;;4992199;28;20078;-52
2022/09/08 04:08:32;;;;;;;56.40;51.03;;;16.50;93.20;;;;;;4995568;28;20104;-50
2022/09/08 04:10:58;;;;;;;58.97;53.35;;;16.50;93.10;;;;;;5012172;28;20121;-48
2022/09/08 04:13:24;;;;;;;57.75;52.22;;;16.50;93.20;;;;;;5011538;28;20037;-48
2022/09/08 04:15:50;;;;;;;56.67;51.13;;;16.40;93.10;;;;;;5028291;28;20025;-48
2022/09/08 04:18:16;;;;;;;55.58;50.33;;;16.40;93.10;;;;;;5012077;28;20109;-48
2022/09/08 04:20:41;;;;;;;57.08;51.58;;;16.40;93.20;;;;;;5012822;28;20473;-48
2022/09/08 04:23:09;;;;;;;59.58;53.55;;;16.40;93.20;;;;;;5012557;28;20021;-48
2022/09/08 04:25:35;;;;;;;57.47;51.85;;;16.50;93.20;;;;;;4993921;28;20046;-48
2022/09/08 04:28:01;;;;;;;56.67;51.05;;;16.50;93.20;;;;;;4992503;28;20085;-48
2022/09/08 04:30:27;;;;;;;54.95;49.75;;;16.50;93.20;;;;;;4991822;28;20045;-50
2022/09/08 04:32:53;;;;;;;55.30;50.20;;;16.40;93.20;;;;;;4995956;28;20026;-53
2022/09/08 04:35:19;;;;;;;55.78;50.28;;;16.40;93.20;;;;;;5012153;28;20331;-48
2022/09/08 04:37:44;;;;;;;54.33;48.63;;;16.40;93.10;;;;;;5011191;28;20427;-48
2022/09/08 04:40:10;;;;;;;58.72;53.22;;;16.40;93.20;;;;;;5001974;28;20081;-51
2022/09/08 04:42:36;;;;;;;59.25;53.63;;;16.40;93.20;;;;;;5002659;28;20018;-49
2022/09/08 04:45:02;;;;;;;58.20;52.72;;;16.40;93.10;;;;;;5003457;28;20084;-52
2022/09/08 04:47:28;;;;;;;59.55;53.75;;;16.40;93.10;;;;;;4996761;28;20053;-48
2022/09/08 04:49:53;;;;;;;59.30;53.17;;;16.40;93.20;;;;;;5011004;28;20041;-49
2022/09/08 04:52:25;;;;;;;58.22;52.65;;;16.40;93.20;;;;;;5010435;28;20457;-49
2022/09/08 04:54:51;;;;;;;56.65;51.08;;;16.40;93.20;;;;;;5001857;28;20026;-49
2022/09/08 04:57:17;;;;;;;58.65;52.92;;;16.40;93.20;;;;;;5004701;28;20029;-50
2022/09/08 04:59:42;;;;;;;56.00;50.38;;;16.40;93.20;;;;;;5001965;28;20036;-52
2022/09/08 05:02:08;;;;;;;60.78;54.92;;;16.40;93.10;;;;;;5004433;28;20026;-49
2022/09/08 05:04:34;;;;;;;63.40;57.42;;;16.40;93.10;;;;;;5010019;28;20040;-50
2022/09/08 05:06:59;;;;;;;58.42;52.90;;;16.40;93.10;;;;;;5011694;28;20026;-52
2022/09/08 05:09:25;;;;;;;59.83;53.92;;;16.40;93.10;;;;;;5011892;28;20407;-49
2022/09/08 05:11:50;;;;;;;59.58;53.58;;;16.40;93.10;;;;;;5012044;28;20522;-54
2022/09/08 05:14:16;;;;;;;62.45;56.45;;;16.40;93.10;;;;;;5008822;28;20041;-51
2022/09/08 05:16:42;;;;;;;56.17;50.78;;;16.40;93.00;;;;;;4996146;28;20026;-53
2022/09/08 05:19:11;;;;;;;61.78;55.40;;;16.40;93.00;;;;;;4993596;28;20026;-54
2022/09/08 05:21:36;;;;;;;59.75;54.05;;;16.40;93.00;;;;;;5010469;28;20030;-50
2022/09/08 05:24:03;;;;;;;56.60;50.97;;;16.40;93.00;;;;;;5010748;28;20281;-52
2022/09/08 05:26:33;;;;;;;55.78;50.28;;;16.40;93.00;;;;;;5004317;28;20077;-52
2022/09/08 05:28:59;;;;;;;58.33;52.97;;;16.40;93.00;;;;;;5002204;28;20038;-50
2022/09/08 05:31:27;;;;;;;60.97;54.83;;;16.40;93.00;;;;;;4988588;28;20036;-51
2022/09/08 05:33:57;;;;;;;55.67;50.22;;;16.40;93.00;;;;;;5005476;28;20015;-52
2022/09/08 05:36:30;;;;;;;53.85;48.30;;;16.50;93.00;;;;;;5007469;28;20027;-50
2022/09/08 05:38:56;;;;;;;55.28;49.80;;;16.50;92.90;;;;;;4991907;28;20085;-54
2022/09/08 05:41:22;;;;;;;61.92;55.85;;;16.50;93.00;;;;;;4991714;28;20405;-50
2022/09/08 05:43:56;;;;;;;52.65;47.53;;;16.50;92.90;;;;;;5001150;28;20454;-53
2022/09/08 05:46:25;;;;;;;56.67;51.00;;;16.60;92.90;;;;;;5011146;28;20025;-50
2022/09/08 05:48:57;;;;;;;61.88;56.13;;;16.60;92.80;;;;;;5010631;28;20030;-53
2022/09/08 05:51:23;;;;;;;55.17;49.47;;;16.60;92.80;;;;;;5003122;28;20022;-50
2022/09/08 05:53:49;;;;;;;61.47;55.22;;;16.60;92.80;;;;;;5016391;28;20026;-49
2022/09/08 05:56:18;;;;;;;54.22;48.55;;;16.60;92.70;;;;;;4998863;28;20081;-52
2022/09/08 05:58:52;;;;;;;59.40;53.67;;;16.70;92.70;;;;;;5019488;28;20026;-55
2022/09/08 06:01:18;;;;;;;62.63;56.38;;;16.70;92.70;;;;;;5002140;28;20014;-51
2022/09/08 06:03:44;;;;;;;64.35;57.97;;;16.70;92.70;;;;;;5019270;28;20442;-53
2022/09/08 06:06:11;;;;;;;52.47;47.38;;;16.70;92.60;;;;;;5001537;28;20105;-51
2022/09/08 06:08:39;;;;;;;57.30;51.90;;;16.70;92.60;;;;;;5000473;28;20447;-54
2022/09/08 06:11:06;;;;;;;55.85;50.33;;;16.70;92.60;;;;;;5004373;28;20053;-50
2022/09/08 06:13:33;;;;;;;57.70;51.92;;;16.90;92.60;;;;;;5014542;28;20113;-55
2022/09/08 06:16:17;;;;;;;51.42;46.40;;;16.80;92.50;;;;;;5001132;28;20036;-55
2022/09/08 06:18:47;;;;;;;53.65;48.60;;;16.90;92.60;;;;;;5003059;28;20034;-54
2022/09/08 06:21:14;;;;;;;49.42;44.50;;;16.90;92.50;;;;;;5017206;28;20022;-51
2022/09/08 06:23:40;;;;;;;56.00;50.63;;;17.00;92.50;;;;;;4999526;28;20432;-49
2022/09/08 06:26:45;;;;;;;53.92;48.67;;;17.10;92.40;;;;;;5001197;28;20038;-49
2022/09/08 06:29:24;;;;;;;53.03;47.85;;;17.10;92.30;;;;;;5000500;28;20044;-53
2022/09/08 06:32:22;;;;;;;49.05;44.38;;;17.20;92.30;;;;;;5004440;28;20033;-54
2022/09/08 06:34:52;;;;;;;52.25;47.35;;;17.20;92.30;;;;;;5007040;28;20057;-48
2022/09/08 06:37:33;;;;;;;46.85;42.30;;;17.20;92.10;;;;;;4997626;28;20537;-48
2022/09/08 06:40:12;;;;;;;45.88;41.25;;;17.20;92.10;;;;;;4998870;28;20061;-51
2022/09/08 06:42:50;;;;;;;49.10;44.58;;;17.20;92.00;;;;;;4995314;28;20030;-51
2022/09/08 06:45:22;;;;;;;45.22;41.10;;;17.30;92.00;;;;;;4990248;28;20053;-49
2022/09/08 06:48:00;;;;;;;45.20;40.92;;;17.30;91.90;;;;;;5001520;28;20357;-48
2022/09/08 06:50:28;;;;;;;40.28;36.45;;;17.40;91.80;;;;;;5001504;28;20046;-48
2022/09/08 06:52:56;;;;;;;50.15;45.30;;;17.40;91.80;;;;;;4995104;28;20021;-48
2022/09/08 06:55:28;;;;;;;47.92;43.45;;;17.40;91.70;;;;;;5003215;28;20040;-49
2022/09/08 06:58:15;;;;;;;44.53;40.28;;;17.40;91.50;;;;;;5001846;28;20022;-49
2022/09/08 07:00:47;;;;;;;43.00;39.03;;;17.50;91.50;;;;;;4996505;28;20033;-51
2022/09/08 07:03:35;;;;;;;41.72;37.92;;;17.50;91.30;;;;;;4994902;28;20036;-47
2022/09/08 07:06:10;;;;;;;43.67;39.25;;;17.50;91.00;;;;;;4995811;28;20027;-47
2022/09/08 07:09:03;;;;;;;35.58;32.47;;;17.50;91.00;;;;;;5000298;28;20029;-49
2022/09/08 07:11:55;;;;;;;36.13;32.83;;;17.60;91.20;;;;;;5001374;28;20428;-49
2022/09/08 07:14:42;;;;;;;33.00;29.83;;;17.80;91.20;;;;;;4999764;28;20032;-48
2022/09/08 07:17:29;;;;;;;39.13;35.15;;;17.90;91.10;;;;;;5013980;28;20458;-46
2022/09/08 07:19:56;;;;;;;33.50;30.40;;;17.90;90.70;;;;;;4997349;28;20474;-49
2022/09/08 07:22:31;;;;;;;34.13;30.73;;;17.90;90.70;;;;;;4998900;28;20084;-48
2022/09/08 07:25:19;;;;;;;32.95;30.15;;;17.90;90.30;;;;;;5013859;28;20025;-46
2022/09/08 07:27:52;;;;;;;32.80;29.77;;;17.90;90.20;;;;;;5002549;28;20040;-50
2022/09/08 07:30:18;;;;;;;31.63;28.52;;;17.90;89.70;;;;;;4996952;28;20050;-46
2022/09/08 07:32:55;;;;;;;32.47;29.67;;;17.90;89.90;;;;;;5000089;28;20102;-46
2022/09/08 07:35:28;;;;;;;31.58;28.85;;;17.80;89.70;;;;;;5004954;28;20032;-46
2022/09/08 07:37:56;;;;;;;32.63;29.52;;;17.80;89.50;;;;;;4999274;28;20054;-46
2022/09/08 07:40:48;;;;;;;32.25;29.30;;;17.80;89.50;;;;;;4998662;28;20028;-48
2022/09/08 07:43:15;;;;;;;34.15;31.15;;;17.90;89.60;;;;;;5002762;28;20043;-46
2022/09/08 07:46:03;;;;;;;31.65;28.73;;;17.90;89.60;;;;;;5000673;28;20359;-46
2022/09/08 07:48:47;;;;;;;28.02;25.30;;;17.90;89.40;;;;;;4999168;28;20037;-46
2022/09/08 07:51:16;;;;;;;31.88;29.05;;;17.90;89.30;;;;;;5012387;28;20022;-46
2022/09/08 07:53:48;;;;;;;31.05;28.30;;;17.90;89.30;;;;;;4997721;28;20030;-46
2022/09/08 07:56:32;;;;;;;28.98;26.35;;;18.00;89.20;;;;;;4988839;28;20092;-46
2022/09/08 07:59:07;;;;;;;30.50;27.45;;;18.00;89.00;;;;;;4994897;28;20072;-49
2022/09/08 08:01:46;;;;;;;30.05;27.25;;;18.10;88.80;;;;;;4998601;28;20030;-46
2022/09/08 08:04:45;;;;;;;22.63;20.35;;;18.20;89.00;;;;;;4973903;28;20084;-46
2022/09/08 08:07:15;;;;;;;25.17;22.92;;;18.20;88.70;;;;;;4992346;28;20042;-46
2022/09/08 08:09:56;;;;;;;22.70;20.48;;;18.20;88.50;;;;;;4989687;28;20161;-46
2022/09/08 08:12:31;;;;;;;26.77;24.30;;;18.20;88.10;;;;;;4998629;28;20684;-45
2022/09/08 08:15:06;;;;;;;25.65;23.48;;;18.30;87.90;;;;;;4994531;28;20122;-46
2022/09/08 08:17:53;;;;;;;24.13;21.90;;;18.30;88.10;;;;;;4992343;28;20034;-48
2022/09/08 08:20:33;;;;;;;24.70;22.48;;;18.40;88.00;;;;;;5007833;28;20034;-46
2022/09/08 08:23:24;;;;;;;;;;;18.40;87.60;;;;;;4977996;28;20069;-47
2022/09/08 08:26:17;;;;;;;23.00;20.90;;;18.40;87.50;;;;;;5009813;28;19996;-46
2022/09/08 08:28:48;;;;;;;25.08;22.77;;;18.40;87.50;;;;;;4988639;28;20031;-49
2022/09/08 08:31:35;;;;;;;22.40;20.08;;;18.40;87.30;;;;;;4988765;28;20402;-47
2022/09/08 08:34:07;;;;;;;21.95;19.65;;;18.60;88.10;;;;;;4983706;28;20018;-46
2022/09/08 08:36:40;;;;;;;21.92;19.67;;;18.60;87.60;;;;;;4992608;28;20050;-46
2022/09/08 08:39:20;;;;;;;21.58;19.48;;;18.70;87.20;;;;;;4992529;28;20049;-45
2022/09/08 08:41:45;;;;;;;19.45;16.73;;;18.70;86.00;;;;;;4986455;28;20121;-46
2022/09/08 08:44:44;;;;;;;19.92;17.27;;;18.80;85.50;;;;;;4973261;28;20083;-46
2022/09/08 08:47:19;;;;;;;17.47;15.87;;;18.90;85.10;;;;;;4988686;28;20038;-46
2022/09/08 08:50:22;;;;;;;18.23;16.17;;;19.00;84.10;;;;;;4990677;28;20321;-46
2022/09/08 08:53:28;;;;;;;17.58;15.82;;;19.10;84.00;;;;;;4989714;28;20054;-46
2022/09/08 08:56:15;;;;;;;17.23;15.50;;;19.20;83.10;;;;;;4983879;28;20030;-48
2022/09/08 08:59:06;;;;;;;17.98;16.33;;;19.20;82.80;;;;;;5007667;28;20320;-47
2022/09/08 09:01:38;;;;;;;18.42;16.70;;;19.20;83.40;;;;;;5003534;28;20038;-49
2022/09/08 09:04:22;;;;;;;19.25;17.45;;;19.30;83.50;;;;;;4989861;28;20023;-47
2022/09/08 09:07:05;;;;;;;20.42;18.23;;;19.40;82.50;;;;;;5011697;28;20068;-47
2022/09/08 09:09:59;;;;;;;18.67;16.88;;;19.60;82.20;;;;;;4991934;28;20035;-46
2022/09/08 09:12:36;;;;;;;19.70;17.75;;;19.70;81.40;;;;;;4991591;28;20026;-50
2022/09/08 09:15:05;;;;;;;20.52;17.98;;;19.90;81.60;;;;;;4991251;28;20436;-47
2022/09/08 09:18:04;;;;;;;15.40;13.93;;;20.10;81.40;;;;;;4992385;28;20022;-47
2022/09/08 09:21:06;;;;;;;16.58;14.98;;;20.30;80.50;;;;;;5001625;28;20040;-47
2022/09/08 09:24:06;;;;;;;18.08;16.38;;;20.60;80.90;;;;;;4988001;28;20026;-47
2022/09/08 09:26:32;;;;;;;;;;;20.70;78.80;;;;;;4990755;28;20463;-47
2022/09/08 09:29:22;;;;;;;17.15;15.70;;;20.90;79.00;;;;;;4985256;28;19972;-47
2022/09/08 09:32:00;;;;;;;;;;;20.90;77.60;;;;;;4985266;28;20032;-48
2022/09/08 09:34:52;;;;;;;16.27;14.73;;;20.80;77.90;;;;;;4987494;28;19917;-49
2022/09/08 09:37:55;;;;;;;14.40;13.00;;;20.70;79.20;;;;;;4991132;28;20033;-47
2022/09/08 09:40:36;;;;;;;15.82;14.48;;;20.80;78.90;;;;;;4996247;28;20034;-47
2022/09/08 09:43:22;;;;;;;15.50;14.20;;;20.80;78.40;;;;;;4971504;28;20027;-46
2022/09/08 09:46:19;;;;;;;18.52;16.85;;;20.80;78.50;;;;;;4972248;28;20050;-47
2022/09/08 09:49:01;;;;;;;17.70;16.00;;;20.70;78.00;;;;;;4972296;28;20030;-47
2022/09/08 09:51:34;;;;;;;18.58;16.77;;;20.70;78.50;;;;;;4979326;28;20019;-47
2022/09/08 09:54:20;;;;;;;17.90;16.23;;;20.70;78.20;;;;;;4979473;28;20015;-47
2022/09/08 09:57:36;;;;;;;17.92;14.93;;;20.70;78.40;;;;;;4973964;28;20022;-47
2022/09/08 10:00:17;;;;;;;17.77;16.17;;;20.80;78.60;;;;;;4971141;28;20444;-50
2022/09/08 10:03:31;;;;;;;17.10;14.95;;;20.70;77.60;;;;;;5006160;28;20128;-47
2022/09/08 10:06:10;;;;;;;18.83;16.98;;;20.70;77.30;;;;;;4964311;28;20104;-47
2022/09/08 10:08:42;;;;;;;20.10;17.83;;;20.60;78.30;;;;;;5004422;28;20032;-47
2022/09/08 10:11:41;;;;;;;18.95;17.15;;;20.50;77.70;;;;;;5009848;28;20072;-48
2022/09/08 10:14:36;;;;;;;20.08;18.00;;;20.50;77.80;;;;;;4989562;28;20483;-47
2022/09/08 10:17:32;;;;;;;20.17;18.33;;;20.40;77.90;;;;;;4978538;28;20054;-47
2022/09/08 10:19:58;;;;;;;20.77;18.98;;;20.20;78.70;;;;;;4990506;28;20376;-47
2022/09/08 10:22:35;;;;;;;19.45;17.73;;;19.90;78.90;;;;;;5004070;28;20129;-49
2022/09/08 10:25:40;;;;;;;19.48;17.58;;;19.90;79.30;;;;;;5005656;28;20035;-47
2022/09/08 10:28:23;;;;;;;21.90;19.00;;;19.70;80.30;;;;;;4990032;28;20034;-46
2022/09/08 10:31:16;;;;;;;21.95;19.80;;;19.50;81.20;;;;;;4995846;28;20037;-47
2022/09/08 10:34:19;;;;;;;21.92;19.92;;;19.30;82.50;;;;;;5004304;28;20112;-48
2022/09/08 10:37:05;;;;;;;24.25;21.85;;;19.10;83.80;;;;;;4992813;28;20069;-67
2022/09/08 10:39:52;;;;;;;27.80;25.05;;;18.80;85.20;;;;;;5000027;28;20039;-65
2022/09/08 10:42:36;;;;;;;27.20;24.77;;;18.50;86.10;;;;;;4970580;28;20440;-65
2022/09/08 10:45:33;;;;;;;28.15;25.58;;;18.40;87.20;;;;;;5010888;28;20065;-65
2022/09/08 10:48:26;;;;;;;30.70;27.80;;;18.20;88.00;;;;;;5002964;28;20114;-64
2022/09/08 10:51:00;;;;;;;31.23;28.33;;;18.20;88.60;;;;;;4985625;28;20046;-65
2022/09/08 10:53:38;;;;;;;32.25;29.45;;;18.00;89.10;;;;;;4984674;28;20121;-65
2022/09/08 10:56:28;;;;;;;35.47;32.03;;;17.90;89.60;;;;;;4983683;28;20027;-61
2022/09/08 10:59:15;;;;;;;;;;;17.90;90.00;;;;;;4994433;28;20058;-66
2022/09/08 11:02:04;;;;;;;37.95;34.40;;;17.80;90.30;;;;;;4988231;28;19920;-60
2022/09/08 11:04:55;;;;;;;37.63;34.08;;;17.60;90.70;;;;;;4977362;28;20470;-64
2022/09/08 11:07:54;;;;;;;35.90;32.70;;;17.60;91.00;;;;;;5000636;28;20836;-60
2022/09/08 11:11:06;;;;;;;38.67;35.17;;;17.50;91.20;;;;;;4970438;28;20042;-66
2022/09/08 11:13:37;;;;;;;41.33;37.75;;;17.40;91.30;;;;;;4970146;28;20051;-66
2022/09/08 11:16:40;;;;;;;41.95;38.03;;;17.40;91.50;;;;;;4970597;28;20023;-66
2022/09/08 11:19:50;;;;;;;38.58;35.13;;;17.40;91.80;;;;;;4991538;28;20061;-64
2022/09/08 11:22:35;;;;;;;39.00;35.53;;;17.40;91.90;;;;;;4970370;28;20066;-61
2022/09/08 11:25:19;;;;;;;46.25;41.95;;;17.40;92.00;;;;;;4970597;28;20125;-58
2022/09/08 11:28:24;;;;;;;42.95;38.72;;;17.40;92.10;;;;;;4969426;28;20066;-58
2022/09/08 11:31:16;;;;;;;41.55;37.40;;;17.40;92.20;;;;;;4974053;28;20041;-56
2022/09/08 11:33:57;;;;;;;39.65;35.88;;;17.40;92.10;;;;;;4984303;28;20031;-57
2022/09/08 11:36:47;;;;;;;22.35;20.17;;;17.40;92.30;;;;;;4971082;28;20035;-51
2022/09/08 11:39:50;;;;;;;16.95;15.25;;;17.30;92.00;;;;;;4970074;28;20029;-56
2022/09/08 11:42:40;;;;;;;17.30;15.60;;;17.10;91.50;;;;;;4969888;28;20038;-56
2022/09/08 11:45:23;;;;;;;15.77;14.35;;;17.10;91.60;;;;;;4983212;28;20482;-55
2022/09/08 11:47:54;;;;;;;12.52;11.30;;;17.00;91.30;;;;;;4984289;28;20061;-57
2022/09/08 11:50:46;;;;;;;12.68;11.45;;;16.90;91.30;;;;;;4984774;28;20088;-56
2022/09/08 11:53:51;;;;;;;12.02;10.82;;;16.90;91.10;;;;;;4988078;28;20030;-52
2022/09/08 11:56:57;;;;;;;12.10;10.90;;;16.90;91.20;;;;;;4989173;28;20041;-57
2022/09/08 11:59:59;;;;;;;14.18;12.85;;;16.90;91.40;;;;;;4988954;28;20066;-57
2022/09/08 12:02:52;;;;;;;13.65;12.45;;;16.90;91.30;;;;;;4991428;28;20038;-58
2022/09/08 12:05:40;;;;;;;13.68;12.30;;;16.90;91.30;;;;;;5004884;28;20054;-60
2022/09/08 12:08:58;;;;;;;12.35;11.18;;;16.90;91.40;;;;;;4973293;28;20081;-60
2022/09/08 12:11:29;;;;;;;11.20;10.10;;;16.90;91.60;;;;;;4974685;28;20041;-58
2022/09/08 12:14:13;;;;;;;10.55;9.55;;;17.00;91.60;;;;;;4990011;28;20027;-61
2022/09/08 12:17:25;;;;;;;11.23;10.13;;;16.90;91.40;;;;;;4991811;28;20030;-60
2022/09/08 12:20:08;;;;;;;10.45;9.38;;;16.90;91.30;;;;;;4980542;28;20034;-60
2022/09/08 12:23:24;;;;;;;12.65;11.45;;;17.10;91.40;;;;;;4978205;28;20034;-61
2022/09/08 12:26:08;;;;;;;15.68;14.23;;;17.10;91.30;;;;;;4992342;28;20056;-61
2022/09/08 12:29:28;;;;;;;10.57;9.57;;;17.00;91.20;;;;;;4991505;28;20513;-64
2022/09/08 12:32:12;;;;;;;;;;;17.10;91.50;;;;;;4995362;28;20436;-62
2022/09/08 12:34:41;;;;;;;13.70;12.32;;;17.20;91.60;;;;;;4993005;28;20328;-61
2022/09/08 12:37:35;;;;;;;17.23;15.60;;;17.20;91.50;;;;;;5006155;28;20062;-61
2022/09/08 12:40:27;;;;;;;15.50;14.00;;;17.30;91.50;;;;;;5007483;28;20039;-62
2022/09/08 12:43:12;;;;;;;16.13;14.52;;;17.40;91.70;;;;;;4990880;28;20080;-61
2022/09/08 12:46:23;;;;;;;15.75;14.35;;;17.40;91.20;;;;;;4998540;28;20038;-61
2022/09/08 12:49:44;;;;;;;13.55;12.27;;;17.40;91.00;;;;;;4990512;28;20104;-59
2022/09/08 12:52:34;;;;;;;12.70;11.50;;;17.40;91.10;;;;;;4968247;28;20074;-60
2022/09/08 12:55:38;;;;;;;15.00;13.50;;;17.40;91.00;;;;;;4972157;28;20150;-60
2022/09/08 12:58:34;;;;;;;13.05;11.80;;;17.40;90.80;;;;;;4977589;28;20026;-56
2022/09/08 13:01:40;;;;;;;12.48;11.23;;;17.30;90.80;;;;;;4967813;28;20150;-60
2022/09/08 13:04:27;;;;;;;13.77;12.57;;;17.40;90.90;;;;;;4961084;28;20125;-59
2022/09/08 13:07:24;;;;;;;12.38;11.02;;;17.40;90.60;;;;;;4954239;28;20078;-60
2022/09/08 13:10:11;;;;;;;12.88;11.55;;;17.40;90.70;;;;;;4963042;28;20473;-57
2022/09/08 13:13:24;;;;;;;13.65;12.43;;;17.40;90.70;;;;;;4966168;28;20039;-57
2022/09/08 13:16:10;;;;;;;10.30;9.13;;;17.40;90.70;;;;;;4954808;28;20122;-59
2022/09/08 13:19:12;;;;;;;11.32;10.18;;;17.50;90.60;;;;;;4968434;28;20045;-58
2022/09/08 13:22:05;;;;;;;14.15;12.85;;;17.50;90.60;;;;;;4969390;28;20393;-57
2022/09/08 13:25:21;;;;;;;12.80;11.70;;;17.50;90.60;;;;;;4967778;28;20066;-58